North Spring Valley, Nevada Weather observations

Data are for 10 minute period ending at time listed.
 Day   Time   Solar   Ave.   Ave.  Ave.  Vector  Max.   Baro.   Total    
  of    of     Rad.   Air    Rel.  Wind   Wind   Wind  Press.  Precip.   
Year   Day            Temp.  Hum.  Speed  Dir.   Gust                    
2016   (PST)  Kw/m2    F      %     mph   deg.    mph    mb.     in.     
-------------------------------------------------------------------------
 205    4:20   0.00   61.6    19    5.6   353     8.6   831.9    0.00 
 205    4:30   0.00   60.4    21    4.6   341     6.9   832.0    0.00 
 205    4:40   0.01   58.5    24    5.5   300     7.0   832.1    0.00 
 205    4:50   0.02   59.0    23    5.2   306     7.2   832.1    0.00 
 205    5:00   0.05   60.7    22    4.0   327     7.5   832.3    0.00 
 205    5:10   0.07   63.1    22    5.1   324     8.0   832.4    0.00 
 205    5:20   0.10   64.8    22    6.3   332    10.1   832.4    0.00 
 205    5:30   0.13   66.1    22    7.3   331    12.1   832.4    0.00 
 205    5:40   0.15   67.0    23    7.3   338    12.3   832.4    0.00 
 205    5:50   0.19   67.9    23    8.3   337    13.4   832.4    0.00 
 205    6:00   0.22   68.3    24    7.9   343    12.3   832.5    0.00 
 205    6:10   0.25   68.7    24    7.6   352    11.8   832.5    0.00 
 205    6:20   0.29   69.1    25    7.0   355    11.0   832.5    0.00 
 205    6:30   0.32   69.3    25    7.9     6    12.4   832.6    0.00 
 205    6:40   0.36   69.5    28    6.9    13    11.8   832.6    0.00 
 205    6:50   0.39   69.8    27    7.6    13    12.9   832.6    0.00 
 205    7:00   0.43   70.2    28    8.0    13    12.3   832.6    0.00 
 205    7:10   0.46   70.6    28    8.7    13    13.5   832.5    0.00 
 205    7:20   0.50   71.1    28    8.3    14    13.6   832.6    0.00 
 205    7:30   0.53   71.9    28    8.4    21    12.2   832.5    0.00 
 205    7:40   0.57   72.3    28    8.0    14    11.8   832.4    0.00 
 205    7:50   0.60   73.0    27    8.1    16    11.6   832.3    0.00 
 205    8:00   0.63   73.3    27    8.3    19    13.1   832.1    0.00 
 205    8:10   0.66   73.8    27    8.2    13    13.4   832.0    0.00 
 205    8:20   0.69   74.6    26    7.4    17    11.2   831.9    0.00 
 205    8:30   0.72   75.3    26    7.2    11    11.5   831.8    0.00 
 205    8:40   0.75   75.9    25    6.8    12    11.9   831.7    0.00 
 205    8:50   0.78   76.5    26    6.2    19    10.3   831.7    0.00 
 205    9:00   0.80   76.8    25    6.8    21    10.4   831.6    0.00 
 205    9:10   0.83   77.3    24    6.7    33     9.9   831.6    0.00 
 205    9:20   0.85   78.0    23    5.1    40     9.7   831.5    0.00 
 205    9:30   0.88   78.4    23    5.3    48     9.2   831.5    0.00 
 205    9:40   0.90   78.7    22    5.3    55     9.0   831.5    0.00 
 205    9:50   0.91   79.5    22    4.3    35     7.5   831.3    0.00 
 205   10:00   0.93   80.1    22    4.0    52     7.7   831.3    0.00 
 205   10:10   0.95   80.5    22    3.8    14     7.3   831.2    0.00 
 205   10:20   0.96   80.7    22    3.9    82     6.6   831.1    0.00 
 205   10:30   0.98   81.7    19    2.7    41     6.6   831.0    0.00 
 205   10:40   0.99   82.5    17    2.3   301     3.9   830.8    0.00 
 205   10:50   1.00   82.6    19    2.2    10     4.8   830.8    0.00 
 205   11:00   1.00   83.6    17    1.5   256     3.1   830.6    0.00 
 205   11:10   1.01   83.7    19    2.5   271     8.8   830.6    0.00 
 205   11:20   1.02   84.3    18    2.7   191     6.1   830.6    0.00 
 205   11:30   1.03   84.5    18    2.2   151     5.2   830.5    0.00 
 205   11:40   1.03   84.8    16    2.1   123     5.6   830.3    0.00 
 205   11:50   1.03   85.5    19    1.6   262     4.2   830.2    0.00 
 205   12:00   1.03   85.0    17    3.5   272     7.5   830.1    0.00 
 205   12:10   1.02   85.2    17    3.4   252     8.0   830.0    0.00 
 205   12:20   1.02   84.7    19    3.7    96     8.9   829.9    0.00 
 205   12:30   1.01   86.6    16    2.1   207     5.6   829.8    0.00 
 205   12:40   1.00   87.6    16    1.9   186     7.5   829.7    0.00 
 205   12:50   0.99   87.5    16    2.4   358     5.4   829.5    0.00 
 205   13:00   0.99   86.7    17    2.4    29     5.0   829.4    0.00 
 205   13:10   0.98   87.9    15    1.2    23     3.8   829.3    0.00 
 205   13:20   0.98   87.9    17    2.6    52     9.0   829.2    0.00 
 205   13:30   0.97   87.2    20    3.1    46     7.0   829.0    0.00 
 205   13:40   0.96   87.5    16    4.0   114     8.3   829.0    0.00 
 205   13:50   0.93   89.0    15    3.7   132    11.3   828.8    0.00 
 205   14:00   0.91   88.3    15    5.5   140    12.0   828.6    0.00 
 205   14:10   0.89   89.0    16    3.1    71     5.3   828.6    0.00 
 205   14:20   0.71   88.0    16    3.7    55     8.4   828.4    0.00 
 205   14:30   0.84   87.1    20    4.4    43     8.6   828.3    0.00 
 205   14:40   0.78   88.2    18    4.5   342     7.5   828.2    0.00 
 205   14:50   0.18   86.4    15    3.8   343     8.3   828.0    0.00 
 205   15:00   0.24   85.0    21    1.4    16     3.4   827.9    0.00 
 205   15:10   0.15   85.6    15    0.5   103     3.1   827.7    0.00 
 205   15:20   0.53   87.2    18    1.7    30     4.4   827.4    0.00 
 205   15:30   0.48   88.4    18    2.3    45     5.7   827.4    0.00 
 205   15:40   0.45   88.9    19    1.6    44     4.2   827.3    0.00 
 205   15:50   0.69   90.8    15    0.7    27     3.6   827.3    0.00 
 205   16:00   0.28   90.4    16    2.2    52     3.8   827.3    0.00 
 205   16:10   0.38   87.2    22    2.0    33     4.6   827.3    0.00 
 205   16:20   0.14   86.3    17    3.3    66     5.8   827.2    0.00 
 205   16:30   0.31   83.8    25    4.5    61    10.7   827.0    0.00 
 205   16:40   0.15   82.6    19    5.8    73     9.2   827.0    0.00 
 205   16:50   0.21   80.5    22    4.5    65     8.3   826.7    0.00 
 205   17:00   0.42   83.7    24    1.4    75     3.5   826.7    0.00 
 205   17:10   0.37   87.2    25    1.5    50     2.8   826.7    0.00 
 205   17:20   0.22   88.5    17    2.2    16     4.3   826.7    0.00 
 205   17:30   0.29   86.4    20    5.4     7     9.7   826.7    0.00 
 205   17:40   0.26   83.6    17   10.0     3    14.8   826.8    0.00 
 205   17:50   0.14   83.1    16    9.8     1    17.4   826.8    0.00 
 205   18:00   0.14   82.7    14   12.0   345    19.1   826.8    0.00 
 205   18:10   0.07   82.6    14   12.2   336    21.5   826.9    0.00 
 205   18:20   0.02   81.5    13   13.1   328    20.3   826.9    0.00 
 205   18:30   0.02   81.2    13   11.3   339    17.5   827.0    0.00 
 205   18:40   0.02   80.8    13   10.2   340    15.4   827.1    0.00 
 205   18:50   0.01   79.8    13    9.4   332    15.6   827.3    0.00 
 205   19:00   0.01   79.0    13    9.0   323    15.7   827.4    0.00 
 205   19:10   0.00   77.8    14    8.6   325    16.1   827.4    0.00 
 205   19:20   0.00   78.5    13    9.4   328    15.9   827.6    0.00 
 205   19:30   0.00   77.9    13    8.1   329    13.3   827.7    0.00 
 205   19:40   0.00   77.5    13    8.2   327    12.3   827.8    0.00 
 205   19:50   0.00   77.0    13    7.5   325    14.5   828.0    0.00 
 205   20:00   0.00   75.2    14    6.6   332     9.3   828.2    0.00 
 205   20:10   0.00   73.3    15    5.9   342     8.9   828.4    0.00 
 205   20:20   0.00   72.2    16    5.5   340     8.8   828.6    0.00 
 205   20:30   0.00   72.6    15    5.7   339     8.3   828.8    0.00 
 205   20:40   0.00   71.7    16    5.7   324     8.7   829.0    0.00 
 205   20:50   0.00   69.8    19    5.1   309     7.5   829.1    0.00 
 205   21:00   0.00   68.0    20    5.5   303     6.4   829.2    0.00 
 205   21:10   0.00   67.5    22    5.0   294     6.2   829.3    0.00 
 205   21:20   0.00   67.5    22    5.1   300     5.8   829.4    0.00 
 205   21:30   0.00   65.2    25    4.0   294     5.6   829.4    0.00 
 205   21:40   0.00   65.7    23    4.0   308     5.8   829.5    0.00 
 205   21:50   0.00   64.0    22    3.3   343     5.0   829.6    0.00 
 205   22:00   0.00   65.7    21    3.5   354     5.0   829.7    0.00 
 205   22:10   0.00   63.1    25    4.1   357     7.0   829.8    0.00 
 205   22:20   0.00   61.4    26    4.0   331     5.3   829.9    0.00 
 205   22:30   0.00   62.9    25    5.0   307     5.9   829.9    0.00 
 205   22:40   0.00   62.9    26    5.3   290     6.3   829.9    0.00 
 205   22:50   0.00   62.4    26    5.4   285     6.1   830.0    0.00 
 205   23:00   0.00   62.3    26    5.1   297     7.0   830.0    0.00 
 205   23:10   0.00   62.6    26    4.9   285     6.0   829.9    0.00 
 205   23:20   0.00   60.0    29    4.3   273     5.3   829.9    0.00 
 205   23:30   0.00   59.4    29    5.7   290     7.3   829.8    0.00 
 205   23:40   0.00   59.1    29    6.3   269     7.0   829.7    0.00 
 205   23:50   0.00   59.8    28    5.7   275     7.2   829.7    0.00 
 206    0:00   0.00   59.0    28    5.2   310     6.6   829.8    0.00 
 206    0:10   0.00   59.2    26    4.1   350     9.1   829.9    0.00 
 206    0:20   0.00   58.0    28    4.8     8     9.3   830.1    0.00 
 206    0:30   0.00   63.9    20    9.2   358    15.3   830.4    0.00 
 206    0:40   0.00   65.6    19    8.3   345    12.7   830.4    0.00 
 206    0:50   0.00   66.5    18    7.5   338    12.6   830.5    0.00 
 206    1:00   0.00   66.7    19    7.5   339    11.9   830.4    0.00 
 206    1:10   0.00   66.5    20    7.2   337    11.6   830.4    0.00 
 206    1:20   0.00   65.1    22    6.0   332     8.8   830.4    0.00 
 206    1:30   0.00   63.7    23    6.4   317     8.9   830.4    0.00 
 206    1:40   0.00   63.8    23    6.8   326    10.3   830.4    0.00 
 206    1:50   0.00   63.8    23    6.8   324     9.9   830.3    0.00 
 206    2:00   0.00   62.5    24    6.0   311     8.0   830.3    0.00 
 206    2:10   0.00   61.3    26    4.7   322     6.1   830.4    0.00 
 206    2:20   0.00   61.2    26    4.7   322     6.1   830.4    0.00 
 206    2:30   0.00   61.1    26    3.7   324     5.1   830.4    0.00 
 206    2:40   0.00   57.3    34    0.8    61     3.1   830.5    0.00 
 206    2:50   0.00   54.8    35    0.3     6     1.4   830.6    0.00 
 206    3:00   0.00   54.2    37    2.3   278     3.7   830.6    0.00 
 206    3:10   0.00   51.5    47    3.9   282     4.8   830.5    0.00 
 206    3:20   0.00   53.5    41    2.1    14     4.7   830.4    0.00 
 206    3:30   0.00   54.0    38    3.5   309     5.6   830.4    0.00 
 206    3:40   0.00   55.1    36    3.4    21     5.5   830.5    0.00 
 206    3:50   0.00   52.2    35    2.4   140     3.9   830.7    0.00 
 206    4:00   0.00   50.5    36    0.9   154     3.3   830.9    0.00 
 206    4:10   0.00   50.3    42    3.7   272     6.2   830.9    0.00 

Return to North Spring Valley graphs page.


Western Regional Climate Center,wrcc@dri.edu